createdAt,value
2022-12-03T00:00:28.257Z,15.70
2022-12-03T00:01:28.224Z,16.60
2022-12-03T00:02:28.322Z,17.40
2022-12-03T00:03:28.370Z,16.60
2022-12-03T00:04:28.203Z,18.30
2022-12-03T00:05:28.220Z,20.00
2022-12-03T00:06:34.172Z,17.90
2022-12-03T00:07:30.223Z,15.20
2022-12-03T00:08:28.171Z,16.20
2022-12-03T00:09:28.159Z,17.00
2022-12-03T00:10:28.184Z,16.40
2022-12-03T00:11:28.150Z,19.20
2022-12-03T00:12:28.137Z,16.40
2022-12-03T00:13:28.131Z,16.00
2022-12-03T00:14:28.127Z,17.10
2022-12-03T00:15:28.210Z,20.10
2022-12-03T00:16:28.239Z,16.70
2022-12-03T00:17:28.096Z,19.40
2022-12-03T00:18:28.093Z,14.50
2022-12-03T00:19:28.086Z,17.50
2022-12-03T00:20:28.104Z,16.10
2022-12-03T00:21:28.071Z,17.50
2022-12-03T00:22:28.062Z,18.50
2022-12-03T00:23:28.055Z,17.60
2022-12-03T00:24:28.044Z,16.60
2022-12-03T00:25:28.058Z,16.30
2022-12-03T00:26:28.031Z,15.60
2022-12-03T00:27:28.186Z,17.30
2022-12-03T00:28:28.021Z,16.80
2022-12-03T00:29:28.033Z,17.10
2022-12-03T00:30:28.025Z,16.90
2022-12-03T00:31:28.043Z,15.60
2022-12-03T00:32:27.990Z,14.90
2022-12-03T00:33:27.976Z,16.60
2022-12-03T00:34:28.042Z,16.50
2022-12-03T00:35:27.989Z,16.20
2022-12-03T00:36:27.964Z,15.60
2022-12-03T00:37:27.953Z,15.20
2022-12-03T00:38:27.948Z,15.90
2022-12-03T00:39:27.936Z,15.60
2022-12-03T00:40:27.955Z,17.20
2022-12-03T00:41:27.926Z,15.70
2022-12-03T00:42:27.922Z,16.80
2022-12-03T00:43:27.905Z,16.50
2022-12-03T00:44:27.898Z,16.00
2022-12-03T00:45:27.911Z,16.50
2022-12-03T00:46:27.961Z,18.00
2022-12-03T00:47:27.875Z,17.10
2022-12-03T00:48:27.876Z,18.60
2022-12-03T00:49:27.863Z,15.80
2022-12-03T00:50:27.883Z,15.60
2022-12-03T00:51:27.836Z,17.30
2022-12-03T00:52:28.841Z,17.10
2022-12-03T00:53:27.834Z,15.30
2022-12-03T00:54:31.858Z,14.50
2022-12-03T00:55:28.894Z,17.30
2022-12-03T00:56:27.811Z,14.90
2022-12-03T00:57:27.804Z,13.30
2022-12-03T00:58:27.791Z,14.90
2022-12-03T00:59:27.785Z,15.70
2022-12-03T01:00:27.803Z,16.80
2022-12-03T01:01:27.836Z,15.50
2022-12-03T01:02:27.770Z,14.60
2022-12-03T01:03:27.748Z,13.80
2022-12-03T01:04:27.767Z,14.10
2022-12-03T01:05:27.762Z,15.50
2022-12-03T01:06:27.733Z,16.50
2022-12-03T01:07:27.767Z,15.40
2022-12-03T01:08:27.715Z,14.20
2022-12-03T01:09:27.708Z,15.40
2022-12-03T01:10:27.721Z,14.80
2022-12-03T01:11:27.693Z,15.40
2022-12-03T01:12:27.686Z,15.00
2022-12-03T01:13:27.677Z,14.40
2022-12-03T01:14:27.668Z,16.20
2022-12-03T01:15:27.685Z,15.20
2022-12-03T01:16:27.677Z,15.10
2022-12-03T01:17:27.645Z,16.80
2022-12-03T01:18:27.635Z,16.10
2022-12-03T01:19:27.630Z,16.10
2022-12-03T01:20:27.646Z,15.70
2022-12-03T01:21:27.611Z,16.40
2022-12-03T01:22:27.607Z,14.80
2022-12-03T01:23:27.597Z,16.60
2022-12-03T01:24:27.591Z,16.90
2022-12-03T01:25:27.606Z,16.00
2022-12-03T01:26:27.573Z,15.60
2022-12-03T01:27:27.566Z,15.90
2022-12-03T01:28:27.557Z,13.80
2022-12-03T01:29:27.545Z,15.50
2022-12-03T01:30:27.583Z,16.40
2022-12-03T01:31:27.586Z,15.30
2022-12-03T01:32:27.531Z,14.00
2022-12-03T01:33:27.518Z,13.50
2022-12-03T01:34:27.513Z,14.00
2022-12-03T01:35:27.533Z,14.70
2022-12-03T01:36:27.494Z,15.60
2022-12-03T01:37:27.489Z,13.40
2022-12-03T01:38:27.477Z,15.60
2022-12-03T01:39:27.470Z,13.70
2022-12-03T01:40:27.487Z,12.80
2022-12-03T01:41:27.461Z,14.50
2022-12-03T01:42:27.456Z,15.70
2022-12-03T01:43:27.448Z,18.20
2022-12-03T01:44:27.438Z,16.30
2022-12-03T01:45:27.452Z,16.30
2022-12-03T01:46:27.452Z,15.60
2022-12-03T01:47:27.418Z,16.20
2022-12-03T01:48:27.412Z,16.10
2022-12-03T01:49:27.399Z,14.50
2022-12-03T01:50:27.430Z,16.40
2022-12-03T01:51:27.389Z,17.80
2022-12-03T01:52:27.381Z,14.70
2022-12-03T01:53:27.361Z,14.60
2022-12-03T01:54:28.369Z,16.40
2022-12-03T01:55:27.383Z,16.00
2022-12-03T01:56:27.352Z,17.40
2022-12-03T01:57:27.343Z,16.20
2022-12-03T01:58:27.341Z,16.80
2022-12-03T01:59:27.338Z,15.00
2022-12-03T02:00:27.375Z,17.90
2022-12-03T02:01:27.393Z,16.00
2022-12-03T02:02:27.309Z,16.70
2022-12-03T02:03:27.349Z,16.90
2022-12-03T02:04:27.350Z,17.90
2022-12-03T02:05:27.310Z,16.40
2022-12-03T02:06:27.282Z,15.80
2022-12-03T02:07:27.293Z,16.90
2022-12-03T02:08:28.266Z,15.80
2022-12-03T02:09:27.253Z,16.70
2022-12-03T02:10:27.286Z,18.30
2022-12-03T02:11:27.243Z,17.70
2022-12-03T02:12:27.239Z,17.20
2022-12-03T02:13:27.226Z,17.20
2022-12-03T02:14:27.220Z,17.70
2022-12-03T02:15:27.257Z,17.60
2022-12-03T02:16:27.293Z,18.00
2022-12-03T02:17:27.197Z,19.40
2022-12-03T02:18:27.189Z,18.40
2022-12-03T02:19:27.181Z,20.20
2022-12-03T02:20:27.172Z,20.10
2022-12-03T02:21:27.190Z,16.00
2022-12-03T02:22:27.154Z,19.90
2022-12-03T02:23:27.150Z,17.40
2022-12-03T02:24:27.143Z,19.90
2022-12-03T02:25:27.134Z,20.70
2022-12-03T02:26:27.158Z,18.80
2022-12-03T02:27:27.124Z,19.10
2022-12-03T02:28:27.109Z,21.00
2022-12-03T02:29:27.110Z,22.70
2022-12-03T02:30:27.097Z,19.40
2022-12-03T02:31:27.178Z,17.00
2022-12-03T02:32:27.083Z,20.80
2022-12-03T02:33:27.075Z,20.10
2022-12-03T02:34:27.076Z,21.30
2022-12-03T02:35:27.063Z,20.60
2022-12-03T02:36:27.075Z,19.90
2022-12-03T02:37:27.053Z,21.90
2022-12-03T02:38:27.044Z,22.20
2022-12-03T02:39:27.037Z,22.40
2022-12-03T02:40:27.026Z,23.30
2022-12-03T02:41:27.042Z,23.30
2022-12-03T02:42:27.007Z,22.40
2022-12-03T02:43:26.999Z,24.30
2022-12-03T02:44:26.995Z,22.50
2022-12-03T02:45:26.988Z,25.60
2022-12-03T02:46:27.082Z,25.70
2022-12-03T02:47:26.968Z,25.00
2022-12-03T02:48:26.963Z,24.60
2022-12-03T02:49:26.953Z,24.40
2022-12-03T02:50:26.947Z,25.90
2022-12-03T02:51:26.966Z,24.30
2022-12-03T02:52:26.937Z,24.60
2022-12-03T02:53:26.933Z,24.00
2022-12-03T02:54:26.924Z,23.30
2022-12-03T02:55:30.660Z,23.60
2022-12-03T02:56:27.936Z,26.60
2022-12-03T02:57:26.902Z,22.60
2022-12-03T02:58:26.893Z,23.70
2022-12-03T02:59:26.889Z,22.60
2022-12-03T03:00:26.880Z,25.70
2022-12-03T03:01:26.977Z,26.20
2022-12-03T03:02:27.026Z,25.60
2022-12-03T03:03:26.853Z,28.70
2022-12-03T03:04:26.876Z,28.30
2022-12-03T03:05:26.847Z,26.70
2022-12-03T03:06:26.835Z,27.10
2022-12-03T03:07:26.955Z,22.50
2022-12-03T03:08:26.820Z,25.50
2022-12-03T03:09:26.843Z,25.10
2022-12-03T03:10:26.807Z,23.60
2022-12-03T03:11:26.805Z,26.40
2022-12-03T03:12:26.792Z,26.50
2022-12-03T03:13:26.786Z,26.20
2022-12-03T03:14:26.803Z,25.20
2022-12-03T03:15:26.768Z,27.60
2022-12-03T03:16:26.817Z,25.00
2022-12-03T03:17:26.754Z,27.00
2022-12-03T03:18:26.743Z,28.00
2022-12-03T03:19:27.766Z,28.10
2022-12-03T03:20:26.731Z,24.20
2022-12-03T03:21:26.724Z,25.10
2022-12-03T03:22:26.715Z,28.10
2022-12-03T03:23:26.709Z,27.80
2022-12-03T03:24:26.728Z,27.30
2022-12-03T03:25:26.692Z,25.20
2022-12-03T03:26:26.685Z,24.70
2022-12-03T03:27:26.681Z,25.40
2022-12-03T03:28:26.671Z,27.70
2022-12-03T03:29:26.686Z,28.40
2022-12-03T03:30:26.662Z,25.20
2022-12-03T03:31:26.692Z,29.20
2022-12-03T03:32:26.647Z,25.80
2022-12-03T03:33:26.636Z,26.30
2022-12-03T03:34:26.669Z,28.30
2022-12-03T03:35:26.620Z,29.60
2022-12-03T03:36:26.614Z,28.50
2022-12-03T03:37:26.604Z,27.10
2022-12-03T03:38:26.596Z,27.00
2022-12-03T03:39:26.616Z,27.80
2022-12-03T03:40:26.585Z,30.30
2022-12-03T03:41:26.573Z,30.20
2022-12-03T03:42:26.566Z,29.00
2022-12-03T03:43:26.564Z,27.90
2022-12-03T03:44:26.578Z,26.30
2022-12-03T03:45:29.457Z,28.70
2022-12-03T03:46:27.584Z,30.30
2022-12-03T03:47:26.543Z,30.10
2022-12-03T03:48:26.524Z,26.20
2022-12-03T03:49:26.547Z,26.90
2022-12-03T03:50:26.510Z,28.00
2022-12-03T03:51:26.502Z,28.90
2022-12-03T03:52:26.494Z,30.10
2022-12-03T03:53:26.486Z,28.10
2022-12-03T03:54:26.502Z,30.30
2022-12-03T03:55:26.473Z,30.30
2022-12-03T03:56:26.460Z,28.10
2022-12-03T03:57:26.467Z,28.50
2022-12-03T03:58:26.448Z,30.60
2022-12-03T03:59:26.469Z,29.40
2022-12-03T04:00:26.430Z,28.90
2022-12-03T04:01:26.481Z,27.70
2022-12-03T04:02:26.419Z,29.10
2022-12-03T04:03:26.415Z,28.30
2022-12-03T04:04:26.517Z,29.20
2022-12-03T04:05:26.394Z,30.80
2022-12-03T04:06:26.395Z,28.30
2022-12-03T04:07:26.405Z,28.60
2022-12-03T04:08:26.381Z,29.70
2022-12-03T04:09:26.397Z,27.40
2022-12-03T04:10:26.360Z,30.60
2022-12-03T04:11:26.350Z,29.40
2022-12-03T04:12:26.347Z,28.50
2022-12-03T04:13:26.336Z,29.00
2022-12-03T04:14:26.363Z,32.50
2022-12-03T04:15:26.323Z,33.00
2022-12-03T04:16:26.368Z,30.80
2022-12-03T04:17:26.306Z,29.20
2022-12-03T04:18:26.299Z,27.70
2022-12-03T04:19:26.321Z,29.60
2022-12-03T04:20:26.281Z,28.90
2022-12-03T04:21:26.270Z,28.00
2022-12-03T04:22:26.271Z,26.40
2022-12-03T04:23:30.770Z,29.30
2022-12-03T04:24:27.293Z,29.70
2022-12-03T04:25:26.244Z,30.70
2022-12-03T04:26:26.236Z,28.90
2022-12-03T04:27:26.227Z,28.50
2022-12-03T04:28:26.211Z,31.40
2022-12-03T04:29:27.214Z,31.50
2022-12-03T04:30:26.254Z,29.70
2022-12-03T04:31:26.202Z,28.40
2022-12-03T04:32:26.191Z,30.30
2022-12-03T04:33:26.189Z,30.20
2022-12-03T04:34:26.175Z,30.00
2022-12-03T04:35:26.292Z,29.60
2022-12-03T04:36:26.161Z,29.00
2022-12-03T04:37:26.154Z,31.20
2022-12-03T04:38:26.142Z,27.90
2022-12-03T04:39:26.137Z,29.60
2022-12-03T04:40:26.151Z,26.60
2022-12-03T04:41:26.126Z,28.90
2022-12-03T04:42:26.114Z,30.00
2022-12-03T04:43:26.108Z,28.00
2022-12-03T04:44:26.102Z,30.10
2022-12-03T04:45:26.120Z,27.70
2022-12-03T04:46:26.124Z,24.80
2022-12-03T04:47:26.075Z,25.40
2022-12-03T04:48:26.072Z,28.40
2022-12-03T04:49:26.066Z,28.40
2022-12-03T04:50:26.075Z,30.40
2022-12-03T04:51:26.047Z,30.60
2022-12-03T04:52:26.034Z,28.60
2022-12-03T04:53:27.037Z,29.40
2022-12-03T04:54:26.032Z,29.60
2022-12-03T04:55:26.046Z,27.40
2022-12-03T04:56:26.012Z,29.90
2022-12-03T04:57:26.007Z,29.80
2022-12-03T04:58:25.994Z,28.30
2022-12-03T04:59:26.029Z,28.60
2022-12-03T05:00:26.008Z,30.00
2022-12-03T05:01:26.051Z,31.10
2022-12-03T05:02:26.015Z,29.30
2022-12-03T05:03:25.963Z,28.50
2022-12-03T05:04:25.949Z,27.70
2022-12-03T05:05:25.971Z,29.20
2022-12-03T05:06:25.944Z,29.40
2022-12-03T05:07:25.945Z,29.80
2022-12-03T05:08:25.925Z,31.60
2022-12-03T05:09:25.917Z,30.80
2022-12-03T05:10:25.936Z,29.60
2022-12-03T05:11:25.908Z,29.20
2022-12-03T05:12:25.895Z,29.00
2022-12-03T05:13:25.890Z,30.90
2022-12-03T05:14:25.880Z,28.90
2022-12-03T05:15:25.902Z,28.50
2022-12-03T05:16:25.919Z,29.90
2022-12-03T05:17:25.875Z,31.40
2022-12-03T05:18:25.854Z,28.90
2022-12-03T05:19:25.873Z,30.60
2022-12-03T05:20:25.865Z,33.00
2022-12-03T05:21:25.831Z,29.60
2022-12-03T05:22:25.827Z,31.70
2022-12-03T05:23:25.815Z,29.30
2022-12-03T05:24:25.811Z,30.90
2022-12-03T05:25:25.841Z,29.70
2022-12-03T05:26:25.794Z,29.50
2022-12-03T05:27:25.792Z,31.70
2022-12-03T05:28:25.780Z,29.90
2022-12-03T05:29:25.786Z,29.50
2022-12-03T05:30:25.819Z,30.70
2022-12-03T05:31:25.880Z,26.90
2022-12-03T05:32:25.750Z,32.40
2022-12-03T05:33:25.743Z,31.80
2022-12-03T05:34:25.739Z,30.10
2022-12-03T05:35:25.732Z,33.00
2022-12-03T05:36:25.857Z,35.40
2022-12-03T05:37:25.713Z,32.70
2022-12-03T05:38:25.746Z,29.70
2022-12-03T05:39:25.694Z,32.90
2022-12-03T05:40:25.690Z,30.90
2022-12-03T05:41:25.704Z,32.10
2022-12-03T05:42:25.672Z,33.00
2022-12-03T05:43:25.666Z,30.00
2022-12-03T05:44:25.662Z,32.40
2022-12-03T05:45:25.648Z,35.60
2022-12-03T05:46:25.743Z,35.70
2022-12-03T05:47:25.658Z,36.00
2022-12-03T05:48:25.629Z,31.30
2022-12-03T05:49:25.620Z,34.10
2022-12-03T05:50:25.616Z,33.80
2022-12-03T05:51:25.629Z,34.00
2022-12-03T05:52:25.600Z,33.40
2022-12-03T05:53:25.595Z,33.40
2022-12-03T05:54:25.588Z,33.20
2022-12-03T05:55:25.575Z,34.40
2022-12-03T05:56:25.594Z,36.60
2022-12-03T05:57:25.560Z,33.10
2022-12-03T05:58:25.552Z,40.30
2022-12-03T05:59:25.549Z,35.10
2022-12-03T06:00:25.540Z,39.20
2022-12-03T06:01:25.558Z,33.70
2022-12-03T06:02:25.632Z,32.30
2022-12-03T06:03:25.669Z,32.00
2022-12-03T06:04:25.509Z,31.70
2022-12-03T06:05:25.503Z,34.00
2022-12-03T06:06:25.527Z,31.70
2022-12-03T06:07:25.502Z,33.40
2022-12-03T06:08:25.484Z,33.00
2022-12-03T06:09:25.473Z,33.60
2022-12-03T06:10:25.471Z,32.10
2022-12-03T06:11:25.489Z,37.60
2022-12-03T06:12:25.453Z,36.00
2022-12-03T06:13:25.443Z,31.90
2022-12-03T06:14:25.441Z,34.60
2022-12-03T06:15:25.431Z,37.90
2022-12-03T06:16:25.547Z,34.80
2022-12-03T06:17:25.420Z,36.00
2022-12-03T06:18:25.411Z,32.90
2022-12-03T06:19:25.401Z,37.50
2022-12-03T06:20:25.400Z,32.30
2022-12-03T06:21:25.415Z,36.20
2022-12-03T06:22:25.381Z,35.00
2022-12-03T06:23:25.370Z,34.20
2022-12-03T06:24:25.368Z,38.40
2022-12-03T06:25:25.365Z,37.80
2022-12-03T06:26:25.381Z,36.40
2022-12-03T06:27:25.344Z,36.70
2022-12-03T06:28:25.332Z,38.30
2022-12-03T06:29:25.337Z,33.50
2022-12-03T06:30:25.323Z,37.60
2022-12-03T06:31:25.428Z,35.90
2022-12-03T06:32:25.307Z,38.70
2022-12-03T06:33:25.300Z,38.60
2022-12-03T06:34:25.293Z,34.20
2022-12-03T06:35:25.291Z,37.80
2022-12-03T06:36:25.300Z,35.20
2022-12-03T06:37:25.267Z,37.90
2022-12-03T06:38:25.261Z,40.40
2022-12-03T06:39:25.261Z,39.70
2022-12-03T06:40:25.255Z,37.10
2022-12-03T06:41:25.265Z,35.60
2022-12-03T06:42:25.233Z,40.00
2022-12-03T06:43:25.222Z,39.60
2022-12-03T06:44:25.218Z,38.90
2022-12-03T06:45:25.213Z,42.70
2022-12-03T06:46:25.278Z,40.30
2022-12-03T06:47:25.200Z,40.00
2022-12-03T06:48:25.189Z,43.40
2022-12-03T06:49:25.178Z,39.90
2022-12-03T06:50:25.175Z,41.70
2022-12-03T06:51:25.260Z,39.40
2022-12-03T06:52:25.160Z,43.00
2022-12-03T06:53:25.169Z,43.70
2022-12-03T06:54:25.137Z,43.40
2022-12-03T06:55:25.137Z,37.80
2022-12-03T06:56:26.497Z,40.80
2022-12-03T06:57:25.120Z,43.50
2022-12-03T06:58:25.111Z,41.20
2022-12-03T06:59:25.111Z,43.60
2022-12-03T07:00:25.097Z,41.90
2022-12-03T07:01:25.126Z,43.20
2022-12-03T07:02:25.143Z,43.50
2022-12-03T07:03:25.156Z,41.90
2022-12-03T07:04:25.066Z,41.30
2022-12-03T07:05:25.069Z,42.10
2022-12-03T07:06:25.077Z,40.90
2022-12-03T07:07:25.075Z,42.30
2022-12-03T07:08:25.053Z,39.30
2022-12-03T07:09:25.036Z,44.00
2022-12-03T07:10:25.024Z,40.10
2022-12-03T07:11:25.045Z,42.40
2022-12-03T07:12:25.005Z,41.90
2022-12-03T07:13:25.000Z,42.10
2022-12-03T07:14:24.998Z,43.10
2022-12-03T07:15:24.991Z,45.50
2022-12-03T07:16:25.086Z,40.70
2022-12-03T07:17:24.974Z,44.20
2022-12-03T07:18:24.960Z,42.20
2022-12-03T07:19:30.651Z,43.80
2022-12-03T07:20:27.003Z,43.80
2022-12-03T07:21:24.967Z,40.70
2022-12-03T07:22:24.934Z,43.00
2022-12-03T07:23:24.924Z,42.70
2022-12-03T07:24:24.919Z,46.30
2022-12-03T07:25:24.912Z,44.70
2022-12-03T07:26:24.906Z,41.20
2022-12-03T07:27:24.934Z,41.40
2022-12-03T07:28:24.891Z,40.20
2022-12-03T07:29:24.900Z,43.20
2022-12-03T07:30:24.876Z,39.40
2022-12-03T07:31:24.917Z,44.00
2022-12-03T07:32:24.891Z,42.20
2022-12-03T07:33:24.850Z,44.70
2022-12-03T07:34:25.840Z,41.90
2022-12-03T07:35:24.837Z,42.90
2022-12-03T07:36:24.830Z,41.90
2022-12-03T07:37:24.848Z,44.40
2022-12-03T07:38:24.815Z,43.90
2022-12-03T07:39:24.807Z,45.00
2022-12-03T07:40:24.803Z,40.40
2022-12-03T07:41:24.797Z,45.70
2022-12-03T07:42:24.812Z,41.60
2022-12-03T07:43:24.780Z,42.20
2022-12-03T07:44:24.770Z,41.00
2022-12-03T07:45:24.761Z,40.70
2022-12-03T07:46:24.789Z,41.40
2022-12-03T07:47:24.771Z,38.00
2022-12-03T07:48:24.739Z,38.10
2022-12-03T07:49:24.735Z,38.90
2022-12-03T07:50:24.729Z,43.50
2022-12-03T07:51:28.927Z,38.10
2022-12-03T07:52:26.735Z,40.70
2022-12-03T07:53:24.699Z,38.80
2022-12-03T07:54:25.697Z,38.90
2022-12-03T07:55:24.691Z,39.90
2022-12-03T07:56:24.694Z,37.20
2022-12-03T07:57:24.704Z,41.20
2022-12-03T07:58:24.669Z,40.50
2022-12-03T07:59:24.660Z,42.90
2022-12-03T08:00:24.650Z,37.30
2022-12-03T08:01:24.730Z,41.30
2022-12-03T08:02:24.738Z,38.30
2022-12-03T08:03:24.656Z,38.80
2022-12-03T08:04:24.620Z,36.20
2022-12-03T08:05:24.613Z,37.50
2022-12-03T08:06:24.610Z,38.20
2022-12-03T08:07:24.693Z,37.60
2022-12-03T08:08:24.598Z,38.40
2022-12-03T08:09:24.595Z,39.60
2022-12-03T08:10:24.582Z,37.30
2022-12-03T08:11:24.571Z,39.60
2022-12-03T08:12:24.591Z,39.80
2022-12-03T08:13:24.559Z,38.20
2022-12-03T08:14:24.551Z,41.50
2022-12-03T08:15:24.544Z,38.00
2022-12-03T08:16:24.619Z,39.80
2022-12-03T08:17:24.557Z,35.50
2022-12-03T08:18:24.521Z,40.10
2022-12-03T08:19:24.523Z,38.20
2022-12-03T08:20:24.509Z,40.70
2022-12-03T08:21:24.497Z,41.90
2022-12-03T08:22:24.519Z,35.30
2022-12-03T08:23:24.489Z,41.70
2022-12-03T08:24:24.478Z,37.60
2022-12-03T08:25:25.470Z,39.00
2022-12-03T08:26:24.465Z,37.70
2022-12-03T08:27:24.479Z,38.60
2022-12-03T08:28:24.453Z,37.70
2022-12-03T08:29:24.443Z,41.30
2022-12-03T08:30:24.434Z,36.10
2022-12-03T08:31:29.258Z,39.40
2022-12-03T08:32:26.446Z,33.70
2022-12-03T08:33:24.413Z,38.40
2022-12-03T08:34:24.408Z,38.90
2022-12-03T08:35:24.407Z,38.00
2022-12-03T08:36:24.389Z,39.30
2022-12-03T08:37:24.404Z,38.80
2022-12-03T08:38:24.377Z,36.20
2022-12-03T08:39:24.362Z,38.80
2022-12-03T08:40:24.360Z,39.80
2022-12-03T08:41:24.356Z,41.70
2022-12-03T08:42:24.378Z,39.60
2022-12-03T08:43:24.356Z,38.60
2022-12-03T08:44:24.326Z,38.80
2022-12-03T08:45:24.381Z,37.50
2022-12-03T08:46:24.356Z,38.70
2022-12-03T08:47:24.330Z,37.60
2022-12-03T08:48:24.290Z,35.20
2022-12-03T08:49:24.282Z,37.00
2022-12-03T08:50:24.331Z,38.30
2022-12-03T08:51:24.272Z,35.20
2022-12-03T08:52:24.265Z,37.70
2022-12-03T08:53:24.284Z,36.50
2022-12-03T08:54:24.249Z,40.50
2022-12-03T08:55:24.243Z,41.20
2022-12-03T08:56:24.224Z,39.40
2022-12-03T08:57:25.224Z,39.20
2022-12-03T08:58:24.247Z,40.80
2022-12-03T08:59:24.209Z,38.80
2022-12-03T09:00:24.314Z,34.80
2022-12-03T09:01:24.357Z,38.90
2022-12-03T09:02:24.188Z,37.60
2022-12-03T09:03:24.207Z,40.50
2022-12-03T09:04:24.221Z,41.70
2022-12-03T09:05:24.165Z,35.00
2022-12-03T09:06:24.164Z,37.90
2022-12-03T09:07:24.147Z,39.20
2022-12-03T09:08:24.166Z,42.20
2022-12-03T09:09:24.131Z,39.60
2022-12-03T09:10:24.183Z,39.00
2022-12-03T09:11:24.116Z,39.50
2022-12-03T09:12:24.114Z,40.90
2022-12-03T09:13:24.128Z,42.40
2022-12-03T09:14:24.094Z,35.80
2022-12-03T09:15:24.083Z,36.20
2022-12-03T09:16:24.114Z,35.20
2022-12-03T09:17:24.070Z,38.90
2022-12-03T09:18:24.089Z,40.60
2022-12-03T09:19:24.057Z,37.30
2022-12-03T09:20:24.051Z,41.40
2022-12-03T09:21:24.044Z,37.10
2022-12-03T09:22:24.051Z,34.40
2022-12-03T09:23:24.051Z,40.50
2022-12-03T09:24:24.016Z,42.20
2022-12-03T09:25:24.010Z,39.90
2022-12-03T09:26:24.023Z,36.40
2022-12-03T09:27:24.008Z,36.90
2022-12-03T09:28:24.007Z,38.40
2022-12-03T09:29:23.976Z,38.30
2022-12-03T09:30:23.974Z,41.30
2022-12-03T09:31:24.034Z,42.10
2022-12-03T09:32:24.066Z,39.80
2022-12-03T09:33:23.970Z,39.60
2022-12-03T09:34:23.941Z,40.20
2022-12-03T09:35:23.929Z,40.70
2022-12-03T09:36:23.932Z,41.10
2022-12-03T09:37:23.907Z,43.70
2022-12-03T09:38:24.932Z,40.70
2022-12-03T09:39:23.908Z,37.20
2022-12-03T09:40:23.897Z,41.80
2022-12-03T09:41:23.889Z,43.90
2022-12-03T09:42:23.885Z,41.00
2022-12-03T09:43:24.567Z,38.30
2022-12-03T09:44:24.866Z,45.60
2022-12-03T09:45:23.879Z,45.70
2022-12-03T09:46:23.926Z,41.20
2022-12-03T09:47:23.856Z,40.20
2022-12-03T09:48:23.870Z,41.70
2022-12-03T09:49:23.835Z,43.40
2022-12-03T09:50:23.828Z,41.10
2022-12-03T09:51:23.840Z,40.20
2022-12-03T09:52:23.821Z,43.50
2022-12-03T09:53:23.810Z,46.10
2022-12-03T09:54:23.849Z,44.70
2022-12-03T09:55:23.795Z,46.30
2022-12-03T09:56:23.786Z,45.30
2022-12-03T09:57:23.779Z,42.70
2022-12-03T09:58:23.814Z,44.00
2022-12-03T09:59:23.781Z,46.40
2022-12-03T10:00:23.790Z,41.90
2022-12-03T10:01:27.880Z,43.80
2022-12-03T10:02:24.741Z,42.70
2022-12-03T10:03:29.552Z,44.50
2022-12-03T10:04:25.803Z,44.50
2022-12-03T10:05:23.773Z,43.40
2022-12-03T10:06:23.715Z,44.10
2022-12-03T10:07:23.705Z,42.30
2022-12-03T10:08:26.947Z,43.80
2022-12-03T10:09:24.710Z,43.70
2022-12-03T10:10:23.684Z,39.90
2022-12-03T10:11:23.670Z,40.50
2022-12-03T10:12:23.666Z,48.50
2022-12-03T10:13:25.823Z,46.00
2022-12-03T10:14:24.667Z,42.90
2022-12-03T10:15:23.638Z,42.50
2022-12-03T10:16:23.691Z,43.80
2022-12-03T10:17:23.625Z,44.30
2022-12-03T10:18:23.657Z,48.80
2022-12-03T10:19:23.636Z,49.20
2022-12-03T10:20:23.606Z,47.20
2022-12-03T10:21:23.601Z,46.20
2022-12-03T10:22:23.593Z,45.50
2022-12-03T10:23:23.586Z,45.00
2022-12-03T10:24:23.597Z,48.10
2022-12-03T10:25:23.571Z,43.00
2022-12-03T10:26:23.573Z,50.60
2022-12-03T10:27:23.563Z,48.90
2022-12-03T10:28:23.547Z,49.70
2022-12-03T10:29:27.028Z,43.90
2022-12-03T10:30:24.527Z,46.70
2022-12-03T10:31:23.587Z,48.20
2022-12-03T10:32:23.517Z,52.70
2022-12-03T10:33:23.504Z,51.60
2022-12-03T10:34:23.536Z,43.30
2022-12-03T10:35:23.497Z,48.10
2022-12-03T10:36:23.490Z,42.50
2022-12-03T10:37:23.476Z,43.90
2022-12-03T10:38:23.481Z,49.20
2022-12-03T10:39:23.490Z,53.40
2022-12-03T10:40:23.453Z,48.70
2022-12-03T10:41:23.452Z,47.00
2022-12-03T10:42:23.435Z,43.70
2022-12-03T10:43:23.432Z,48.30
2022-12-03T10:44:23.428Z,50.40
2022-12-03T10:45:23.452Z,49.40
2022-12-03T10:46:23.521Z,53.20
2022-12-03T10:47:23.519Z,45.20
2022-12-03T10:48:23.398Z,50.20
2022-12-03T10:49:23.386Z,53.30
2022-12-03T10:50:23.403Z,49.00
2022-12-03T10:51:23.375Z,46.40
2022-12-03T10:52:25.928Z,47.10
2022-12-03T10:53:24.377Z,50.80
2022-12-03T10:54:23.348Z,52.00
2022-12-03T10:55:23.388Z,52.00
2022-12-03T10:56:23.333Z,49.70
2022-12-03T10:57:23.330Z,51.00
2022-12-03T10:58:23.332Z,49.10
2022-12-03T10:59:23.316Z,49.10
2022-12-03T11:00:23.332Z,51.00
2022-12-03T11:01:23.346Z,48.90
2022-12-03T11:02:23.283Z,46.70
2022-12-03T11:03:24.334Z,51.10
2022-12-03T11:04:23.276Z,50.90
2022-12-03T11:05:23.297Z,49.90
2022-12-03T11:06:23.260Z,43.50
2022-12-03T11:07:23.253Z,50.50
2022-12-03T11:08:23.253Z,54.70
2022-12-03T11:09:23.241Z,53.20
2022-12-03T11:10:23.233Z,53.90
2022-12-03T11:11:23.251Z,53.30
2022-12-03T11:12:23.219Z,52.80
2022-12-03T11:13:23.209Z,51.60
2022-12-03T11:14:23.277Z,54.90
2022-12-03T11:15:23.193Z,50.00
2022-12-03T11:16:23.252Z,48.50
2022-12-03T11:17:23.178Z,47.60
2022-12-03T11:18:23.168Z,49.00
2022-12-03T11:19:23.161Z,47.10
2022-12-03T11:20:23.333Z,50.60
2022-12-03T11:21:23.170Z,47.90
2022-12-03T11:22:23.141Z,50.70
2022-12-03T11:23:23.127Z,51.50
2022-12-03T11:24:23.122Z,52.50
2022-12-03T11:25:23.113Z,50.20
2022-12-03T11:26:23.130Z,46.80
2022-12-03T11:27:23.099Z,49.60
2022-12-03T11:28:23.092Z,52.90
2022-12-03T11:29:23.085Z,49.60
2022-12-03T11:30:23.079Z,51.70
2022-12-03T11:31:23.137Z,49.10
2022-12-03T11:32:23.062Z,54.10
2022-12-03T11:33:23.058Z,49.60
2022-12-03T11:34:23.047Z,51.40
2022-12-03T11:35:23.034Z,52.60
2022-12-03T11:36:42.043Z,55.80
2022-12-03T11:37:25.059Z,51.90
2022-12-03T11:38:23.020Z,49.30
2022-12-03T11:39:23.013Z,48.10
2022-12-03T11:40:23.001Z,53.20
2022-12-03T11:41:23.018Z,50.70
2022-12-03T11:42:23.021Z,47.90
2022-12-03T11:43:22.979Z,44.40
2022-12-03T11:44:22.973Z,51.40
2022-12-03T11:45:22.968Z,51.20
2022-12-03T11:46:23.002Z,49.10
2022-12-03T11:47:22.980Z,50.20
2022-12-03T11:48:22.947Z,48.40
2022-12-03T11:49:22.941Z,44.40
2022-12-03T11:50:22.926Z,44.60
2022-12-03T11:51:22.920Z,45.40
2022-12-03T11:52:22.940Z,41.20
2022-12-03T11:53:22.915Z,47.80
2022-12-03T11:54:22.901Z,41.40
2022-12-03T11:55:22.893Z,42.30
2022-12-03T11:56:22.887Z,40.20
2022-12-03T11:57:22.920Z,39.30
2022-12-03T11:58:22.873Z,41.80
2022-12-03T11:59:22.863Z,44.20
2022-12-03T12:00:22.857Z,42.70
2022-12-03T12:01:22.850Z,43.20
2022-12-03T12:02:22.868Z,40.10
2022-12-03T12:03:22.997Z,39.40
2022-12-03T12:04:22.912Z,47.30
2022-12-03T12:05:22.823Z,43.20
2022-12-03T12:06:22.813Z,44.00
2022-12-03T12:07:22.831Z,45.90
2022-12-03T12:08:22.796Z,46.50
2022-12-03T12:09:22.791Z,42.40
2022-12-03T12:10:22.782Z,44.20
2022-12-03T12:11:22.771Z,44.00
2022-12-03T12:12:22.790Z,48.80
2022-12-03T12:13:22.760Z,44.40
2022-12-03T12:14:22.751Z,44.00
2022-12-03T12:15:22.747Z,46.80
2022-12-03T12:16:22.855Z,46.10
2022-12-03T12:17:22.759Z,47.20
2022-12-03T12:18:22.728Z,44.20
2022-12-03T12:19:22.716Z,44.50
2022-12-03T12:20:22.707Z,42.70
2022-12-03T12:21:22.710Z,40.30
2022-12-03T12:22:22.720Z,42.30
2022-12-03T12:23:22.692Z,40.90
2022-12-03T12:24:22.683Z,40.70
2022-12-03T12:25:22.672Z,40.30
2022-12-03T12:26:22.662Z,42.30
2022-12-03T12:27:22.731Z,37.80
2022-12-03T12:28:22.667Z,40.80
2022-12-03T12:29:22.640Z,43.00
2022-12-03T12:30:22.631Z,39.70
2022-12-03T12:31:22.792Z,42.20
2022-12-03T12:32:22.645Z,44.10
2022-12-03T12:33:22.614Z,41.80
2022-12-03T12:34:22.608Z,39.90
2022-12-03T12:35:22.592Z,45.50
2022-12-03T12:36:22.585Z,38.70
2022-12-03T12:37:22.603Z,40.30
2022-12-03T12:38:22.571Z,43.70
2022-12-03T12:39:22.565Z,40.50
2022-12-03T12:40:22.563Z,42.10
2022-12-03T12:41:22.549Z,39.40
2022-12-03T12:42:22.568Z,40.60
2022-12-03T12:43:24.259Z,42.60
2022-12-03T12:44:23.542Z,38.10
2022-12-03T12:45:22.525Z,42.90
2022-12-03T12:46:47.245Z,44.00
2022-12-03T12:47:24.609Z,41.50
2022-12-03T12:48:22.499Z,35.90
2022-12-03T12:49:22.496Z,39.00
2022-12-03T12:50:22.488Z,41.60
2022-12-03T12:51:22.481Z,42.90
2022-12-03T12:52:22.502Z,39.70